Time;durP1;ratioP1;P1;durP2;ratioP2;P2;SDS_P1;SDS_P2;PMS_P1;PMS_P2;Temp;Humidity;BMP_temperature;BMP_pressure;BME280_temperature;BME280_humidity;BME280_pressure;Samples;Min_cycle;Max_cycle;Signal;HPM_P1;HPM_P2
2023/03/11 00:01:02;;;;;;;5.50;1.60;;;1.20;99.90;;;;;;5091237;28;20049;-63
2023/03/11 00:03:28;;;;;;;6.43;1.58;;;1.20;99.90;;;;;;5091071;28;20108;-63
2023/03/11 00:05:55;;;;;;;4.47;1.25;;;1.20;99.90;;;;;;5091941;28;20044;-63
2023/03/11 00:08:24;;;;;;;5.75;1.23;;;1.10;99.90;;;;;;5091926;28;20044;-64
2023/03/11 00:10:54;;;;;;;5.20;1.27;;;1.10;99.90;;;;;;5091752;28;20032;-63
2023/03/11 00:13:21;;;;;;;4.85;1.30;;;1.10;99.90;;;;;;5074146;28;20161;-64
2023/03/11 00:15:49;;;;;;;4.70;1.27;;;1.10;99.90;;;;;;5091345;28;20044;-63
2023/03/11 00:18:16;;;;;;;5.82;1.02;;;1.00;99.90;;;;;;5086044;28;20618;-63
2023/03/11 00:20:44;;;;;;;6.75;1.15;;;1.00;99.90;;;;;;5072254;28;20101;-63
2023/03/11 00:23:12;;;;;;;5.65;1.70;;;1.00;99.90;;;;;;5083082;28;20428;-63
2023/03/11 00:25:38;;;;;;;4.65;1.20;;;1.00;99.90;;;;;;5073700;28;20500;-63
2023/03/11 00:28:06;;;;;;;3.75;1.20;;;1.00;99.90;;;;;;5091173;28;20047;-63
2023/03/11 00:30:32;;;;;;;4.50;1.45;;;1.00;99.90;;;;;;5091335;28;20047;-63
2023/03/11 00:32:58;;;;;;;7.95;2.40;;;1.00;99.90;;;;;;5090172;28;20040;-63
2023/03/11 00:35:26;;;;;;;3.95;1.70;;;1.00;99.90;;;;;;5090454;28;20036;-63
2023/03/11 00:37:55;;;;;;;5.47;1.17;;;0.90;99.90;;;;;;5087551;28;20115;-63
2023/03/11 00:40:23;;;;;;;6.57;1.30;;;0.90;99.90;;;;;;5085163;28;20540;-63
2023/03/11 00:42:49;;;;;;;5.32;1.55;;;0.90;99.90;;;;;;5087555;28;20086;-63
2023/03/11 00:45:16;;;;;;;4.88;1.38;;;0.90;99.90;;;;;;5070226;28;20045;-63
2023/03/11 00:47:42;;;;;;;8.35;1.38;;;0.90;99.90;;;;;;5053457;28;20044;-63
2023/03/11 00:50:11;;;;;;;6.45;0.90;;;1.00;99.90;;;;;;5070044;28;20566;-63
2023/03/11 00:52:37;;;;;;;3.28;0.80;;;1.00;99.90;;;;;;5070991;28;20036;-63
2023/03/11 00:55:04;;;;;;;2.47;0.73;;;1.00;99.90;;;;;;5069654;28;20072;-63
2023/03/11 00:57:29;;;;;;;3.97;1.15;;;1.00;99.90;;;;;;5082886;28;20527;-63
2023/03/11 00:59:55;;;;;;;4.43;0.70;;;1.00;99.90;;;;;;5053894;28;20072;-63
2023/03/11 01:02:21;;;;;;;4.78;0.80;;;1.00;99.90;;;;;;5070374;28;20040;-63
2023/03/11 01:04:47;;;;;;;4.38;1.25;;;1.00;99.90;;;;;;5070461;28;20049;-63
2023/03/11 01:07:13;;;;;;;2.65;0.60;;;1.00;99.90;;;;;;5070585;28;20029;-63
2023/03/11 01:09:38;;;;;;;4.47;0.80;;;1.10;99.90;;;;;;5070566;28;20128;-63
2023/03/11 01:12:04;;;;;;;5.35;0.98;;;1.10;99.90;;;;;;5085311;28;20047;-63
2023/03/11 01:14:30;;;;;;;5.93;1.27;;;1.00;99.90;;;;;;5069615;28;20416;-63
2023/03/11 01:16:55;;;;;;;7.40;0.90;;;1.00;99.90;;;;;;5057154;28;20040;-63
2023/03/11 01:19:22;;;;;;;3.35;1.00;;;1.00;99.90;;;;;;5089986;28;20073;-64
2023/03/11 01:21:47;;;;;;;6.68;1.13;;;1.00;99.90;;;;;;5089831;28;20036;-63
2023/03/11 01:24:13;;;;;;;4.13;1.20;;;1.00;99.90;;;;;;5091176;28;20100;-63
2023/03/11 01:26:38;;;;;;;2.85;0.80;;;1.00;99.90;;;;;;5090965;28;20036;-63
2023/03/11 01:29:04;;;;;;;2.78;0.90;;;1.00;99.90;;;;;;5072753;28;20119;-63
2023/03/11 01:31:30;;;;;;;2.80;0.80;;;1.00;99.90;;;;;;5094157;28;20137;-63
2023/03/11 01:33:55;;;;;;;2.97;0.75;;;0.90;99.90;;;;;;5095623;28;20063;-63
2023/03/11 01:36:21;;;;;;;8.10;0.90;;;0.90;99.90;;;;;;5094333;28;20412;-64
2023/03/11 01:38:47;;;;;;;4.07;0.98;;;1.00;99.90;;;;;;5095653;28;20047;-63
2023/03/11 01:41:12;;;;;;;4.45;1.00;;;1.00;99.90;;;;;;5093367;28;20056;-63
2023/03/11 01:43:44;;;;;;;4.82;0.70;;;0.90;99.90;;;;;;5093712;28;20115;-63
2023/03/11 01:46:12;;;;;;;9.45;1.10;;;0.80;99.90;;;;;;5093484;28;20122;-63
2023/03/11 01:48:39;;;;;;;5.30;0.85;;;0.80;99.90;;;;;;5073907;28;20036;-63
2023/03/11 01:51:06;;;;;;;9.55;1.20;;;0.80;99.90;;;;;;5072661;28;20052;-63
2023/03/11 01:53:32;;;;;;;3.95;1.55;;;0.80;99.90;;;;;;5075144;28;20054;-63
2023/03/11 01:55:58;;;;;;;3.53;1.08;;;0.80;99.90;;;;;;5084974;28;20047;-63
2023/03/11 01:58:27;;;;;;;2.15;0.70;;;0.80;99.90;;;;;;5092399;28;20424;-63
2023/03/11 02:00:54;;;;;;;3.72;1.25;;;0.80;99.90;;;;;;5094976;28;20400;-63
2023/03/11 02:03:36;;;;;;;3.90;1.02;;;0.80;99.90;;;;;;5094567;28;20091;-63
2023/03/11 02:06:05;;;;;;;4.85;0.68;;;0.80;99.90;;;;;;5093539;28;20173;-63
2023/03/11 02:08:33;;;;;;;3.92;0.70;;;0.70;99.90;;;;;;5095003;28;20047;-63
2023/03/11 02:11:01;;;;;;;4.13;0.82;;;0.70;99.90;;;;;;5094056;28;20039;-63
2023/03/11 02:13:27;;;;;;;6.10;0.90;;;0.60;99.90;;;;;;5094277;28;20400;-63
2023/03/11 02:15:53;;;;;;;5.35;1.17;;;0.60;99.90;;;;;;5093868;28;20377;-63
2023/03/11 02:18:21;;;;;;;4.47;0.95;;;0.60;99.90;;;;;;5091994;28;20092;-63
2023/03/11 02:21:06;;;;;;;3.28;0.90;;;0.50;99.90;;;;;;5076929;28;20036;-63
2023/03/11 02:23:49;;;;;;;4.50;1.02;;;0.50;99.90;;;;;;5066927;28;20090;-63
2023/03/11 02:26:26;;;;;;;3.55;0.90;;;0.60;99.90;;;;;;5071805;28;20125;-63
2023/03/11 02:28:53;;;;;;;6.90;0.73;;;0.60;99.90;;;;;;5056354;28;20078;-63
2023/03/11 02:31:20;;;;;;;4.22;0.82;;;0.60;99.90;;;;;;5082434;28;20044;-63
2023/03/11 02:33:49;;;;;;;5.78;0.90;;;0.60;99.90;;;;;;5073353;28;20098;-63
2023/03/11 02:36:40;;;;;;;3.88;0.77;;;0.70;99.90;;;;;;5082377;28;20150;-63
2023/03/11 02:39:06;;;;;;;3.08;1.02;;;0.70;99.90;;;;;;5074911;28;20082;-63
2023/03/11 02:41:38;;;;;;;2.75;0.85;;;0.70;99.90;;;;;;5092817;28;20113;-63
2023/03/11 02:44:07;;;;;;;15.50;1.98;;;0.70;99.90;;;;;;5093927;28;20036;-63
2023/03/11 02:46:34;;;;;;;3.38;0.80;;;0.70;99.90;;;;;;5093235;28;20553;-62
2023/03/11 02:49:00;;;;;;;2.70;0.90;;;0.70;99.90;;;;;;5092909;28;20089;-63
2023/03/11 02:51:26;;;;;;;4.38;1.08;;;0.70;99.90;;;;;;5092676;28;20126;-63
2023/03/11 02:53:56;;;;;;;2.05;0.60;;;0.70;99.90;;;;;;5103750;28;20139;-63
2023/03/11 02:56:24;;;;;;;3.40;0.90;;;0.70;99.90;;;;;;5113575;28;20039;-63
2023/03/11 02:58:50;;;;;;;4.57;0.90;;;0.70;99.90;;;;;;5113001;28;20039;-63
2023/03/11 03:01:16;;;;;;;3.88;0.95;;;0.70;99.90;;;;;;5112767;28;20093;-63
2023/03/11 03:03:42;;;;;;;4.85;1.00;;;0.70;99.90;;;;;;5112876;28;20039;-63
2023/03/11 03:06:07;;;;;;;7.45;1.35;;;0.70;99.90;;;;;;5113466;28;20031;-63
2023/03/11 03:08:33;;;;;;;5.30;1.27;;;0.70;99.90;;;;;;5113338;28;20075;-63
2023/03/11 03:10:58;;;;;;;5.07;0.90;;;0.70;99.90;;;;;;5113701;28;20039;-63
2023/03/11 03:13:31;;;;;;;3.50;0.93;;;0.70;99.90;;;;;;5112092;28;20051;-63
2023/03/11 03:15:57;;;;;;;3.85;1.42;;;0.60;99.90;;;;;;5112989;28;20491;-63
2023/03/11 03:18:23;;;;;;;5.28;1.00;;;0.60;99.90;;;;;;5112299;28;20369;-63
2023/03/11 03:20:50;;;;;;;3.72;1.00;;;0.50;99.90;;;;;;5094877;28;20031;-63
2023/03/11 03:23:16;;;;;;;4.93;0.95;;;0.50;99.90;;;;;;5112007;28;20123;-63
2023/03/11 03:25:43;;;;;;;3.80;0.70;;;0.40;99.90;;;;;;5113449;28;20118;-63
2023/03/11 03:28:10;;;;;;;6.70;2.47;;;0.40;99.90;;;;;;5093759;28;20043;-63
2023/03/11 03:30:36;;;;;;;3.50;0.80;;;0.40;99.90;;;;;;5113655;28;20040;-63
2023/03/11 03:33:03;;;;;;;3.97;1.20;;;0.40;99.90;;;;;;5095358;28;20436;-63
2023/03/11 03:35:28;;;;;;;4.93;1.20;;;0.50;99.90;;;;;;5112711;28;20039;-63
2023/03/11 03:37:54;;;;;;;6.47;1.00;;;0.40;99.90;;;;;;5095466;28;20108;-63
2023/03/11 03:40:20;;;;;;;5.45;1.50;;;0.30;99.90;;;;;;5094570;28;20047;-63
2023/03/11 03:42:46;;;;;;;5.43;1.30;;;0.30;99.90;;;;;;5112288;28;20048;-63
2023/03/11 03:45:11;;;;;;;4.63;0.90;;;0.20;99.90;;;;;;5111000;28;20058;-63
2023/03/11 03:47:37;;;;;;;10.30;1.48;;;0.20;99.90;;;;;;5112479;28;20042;-63
2023/03/11 03:50:09;;;;;;;3.70;0.88;;;0.20;99.90;;;;;;5094196;28;20468;-63
2023/03/11 03:52:35;;;;;;;3.50;0.85;;;0.10;99.90;;;;;;5111482;28;20118;-63
2023/03/11 03:55:02;;;;;;;10.82;1.90;;;0.10;99.90;;;;;;5111772;28;20048;-63
2023/03/11 03:57:28;;;;;;;7.97;1.40;;;0.00;99.90;;;;;;5111841;28;20039;-63
2023/03/11 03:59:54;;;;;;;4.72;1.65;;;0.00;99.90;;;;;;5111999;28;20047;-63
2023/03/11 04:02:20;;;;;;;3.92;1.38;;;-0.10;99.90;;;;;;5112354;28;20036;-63
2023/03/11 04:04:45;;;;;;;3.40;1.17;;;-0.10;99.90;;;;;;5111419;28;20032;-63
2023/03/11 04:07:11;;;;;;;4.85;1.30;;;-0.10;99.90;;;;;;5094135;28;20598;-63
2023/03/11 04:09:42;;;;;;;6.50;1.42;;;-0.20;99.90;;;;;;5113073;28;20043;-63
2023/03/11 04:12:13;;;;;;;2.85;0.80;;;-0.20;99.90;;;;;;5110338;28;20113;-63
2023/03/11 04:14:39;;;;;;;7.25;1.08;;;-0.30;99.90;;;;;;5113289;28;20042;-63
2023/03/11 04:17:05;;;;;;;3.65;1.25;;;-0.40;99.90;;;;;;5111661;28;20080;-63
2023/03/11 04:19:31;;;;;;;3.88;1.05;;;-0.40;99.90;;;;;;5111504;28;20044;-63
2023/03/11 04:21:57;;;;;;;3.83;1.17;;;-0.40;99.90;;;;;;5111678;28;20042;-63
2023/03/11 04:24:23;;;;;;;3.05;1.00;;;-0.40;99.90;;;;;;5110206;28;20047;-63
2023/03/11 04:26:49;;;;;;;5.25;1.08;;;-0.40;99.90;;;;;;5112713;28;20507;-63
2023/03/11 04:29:14;;;;;;;5.20;1.10;;;-0.50;99.90;;;;;;5112396;28;20035;-63
2023/03/11 04:31:40;;;;;;;3.45;0.88;;;-0.60;99.90;;;;;;5110341;28;20047;-63
2023/03/11 04:34:06;;;;;;;3.22;0.90;;;-0.70;99.90;;;;;;5094140;28;20131;-63
2023/03/11 04:36:32;;;;;;;3.67;1.00;;;-0.80;99.90;;;;;;5112623;28;20055;-62
2023/03/11 04:38:58;;;;;;;6.75;1.10;;;-0.90;99.90;;;;;;5110329;28;20044;-62
2023/03/11 04:41:23;;;;;;;4.82;1.08;;;-0.90;99.90;;;;;;5110445;28;20055;-62
2023/03/11 04:43:49;;;;;;;3.08;0.88;;;-1.00;99.90;;;;;;5112546;28;20036;-62
2023/03/11 04:46:15;;;;;;;2.58;0.88;;;-1.10;99.90;;;;;;5109704;28;20078;-62
2023/03/11 04:48:40;;;;;;;2.97;0.90;;;-1.10;99.90;;;;;;5112370;28;20080;-62
2023/03/11 04:51:07;;;;;;;6.85;1.80;;;-1.20;99.90;;;;;;5110718;28;20043;-62
2023/03/11 04:53:33;;;;;;;4.47;0.95;;;-1.20;99.90;;;;;;5093542;28;20081;-62
2023/03/11 04:55:58;;;;;;;4.55;1.27;;;-1.30;99.90;;;;;;5111239;28;20043;-62
2023/03/11 04:58:24;;;;;;;6.05;0.85;;;-1.30;99.90;;;;;;5110742;28;20068;-62
2023/03/11 05:00:51;;;;;;;3.40;0.90;;;-1.40;99.90;;;;;;5110464;28;20036;-62
2023/03/11 05:03:17;;;;;;;3.10;1.00;;;-1.40;99.90;;;;;;5110010;28;20075;-62
2023/03/11 05:05:44;;;;;;;3.97;0.77;;;-1.50;99.90;;;;;;5113426;28;20448;-62
2023/03/11 05:08:09;;;;;;;3.33;1.00;;;-1.50;99.90;;;;;;5115020;28;20073;-62
2023/03/11 05:10:35;;;;;;;3.97;0.90;;;-1.60;99.90;;;;;;5115158;28;20035;-62
2023/03/11 05:13:01;;;;;;;5.32;0.93;;;-1.60;99.90;;;;;;5097577;28;20037;-62
2023/03/11 05:15:27;;;;;;;6.22;1.00;;;-1.60;99.90;;;;;;5073599;28;20493;-62
2023/03/11 05:17:53;;;;;;;3.17;1.00;;;-1.70;99.90;;;;;;5074441;28;20123;-62
2023/03/11 05:20:19;;;;;;;3.45;0.90;;;-1.70;99.90;;;;;;5057067;28;20127;-62
2023/03/11 05:22:44;;;;;;;4.30;1.23;;;-1.80;99.90;;;;;;5081633;28;20054;-62
2023/03/11 05:25:10;;;;;;;3.58;1.05;;;-1.80;99.90;;;;;;5095087;28;20038;-62
2023/03/11 05:27:36;;;;;;;4.15;1.42;;;-1.80;99.90;;;;;;5094912;28;20118;-62
2023/03/11 05:30:02;;;;;;;5.47;1.55;;;-1.90;99.90;;;;;;5094509;28;20135;-62
2023/03/11 05:32:28;;;;;;;5.28;2.10;;;-1.90;99.90;;;;;;5094065;28;20036;-62
2023/03/11 05:34:53;;;;;;;7.00;1.85;;;-1.90;99.90;;;;;;5094856;28;20047;-62
2023/03/11 05:37:19;;;;;;;4.43;1.60;;;-1.90;99.90;;;;;;5093729;28;20036;-62
2023/03/11 05:39:45;;;;;;;6.35;1.50;;;-1.90;99.90;;;;;;5090779;28;20040;-62
2023/03/11 05:42:10;;;;;;;3.90;1.08;;;-1.90;99.90;;;;;;5073657;28;20052;-62
2023/03/11 05:44:36;;;;;;;5.07;1.73;;;-2.00;99.90;;;;;;5090759;28;20378;-62
2023/03/11 05:47:02;;;;;;;4.78;1.05;;;-2.00;99.90;;;;;;5074250;28;20047;-62
2023/03/11 05:49:27;;;;;;;7.05;1.30;;;-2.00;99.90;;;;;;5089859;28;20048;-62
2023/03/11 05:51:53;;;;;;;7.25;1.15;;;-2.00;99.90;;;;;;5079167;28;20040;-62
2023/03/11 05:54:19;;;;;;;4.53;1.17;;;-2.00;99.90;;;;;;5113559;28;20480;-62
2023/03/11 05:56:46;;;;;;;3.50;0.98;;;-2.10;99.90;;;;;;5113810;28;20174;-62
2023/03/11 05:59:15;;;;;;;4.07;1.35;;;-2.10;99.90;;;;;;5113966;28;20542;-62
2023/03/11 06:01:42;;;;;;;3.25;1.00;;;-2.10;99.90;;;;;;5114296;28;20040;-62
2023/03/11 06:04:08;;;;;;;4.28;1.25;;;-2.10;99.90;;;;;;5112952;28;20039;-62
2023/03/11 06:06:33;;;;;;;5.07;1.55;;;-2.10;99.90;;;;;;5096618;28;20115;-62
2023/03/11 06:09:00;;;;;;;3.53;1.20;;;-2.10;99.90;;;;;;5115630;28;20516;-62
2023/03/11 06:11:26;;;;;;;5.50;1.42;;;-2.20;99.90;;;;;;5113197;28;20050;-62
2023/03/11 06:13:53;;;;;;;7.13;1.55;;;-2.20;99.90;;;;;;5097037;28;20039;-62
2023/03/11 06:16:19;;;;;;;3.78;1.08;;;-2.20;99.90;;;;;;5113732;28;20039;-62
2023/03/11 06:18:45;;;;;;;8.88;1.63;;;-2.30;99.90;;;;;;5112981;28;20039;-62
2023/03/11 06:21:16;;;;;;;4.35;1.30;;;-2.30;99.90;;;;;;5113049;28;20036;-62
2023/03/11 06:23:42;;;;;;;3.17;1.35;;;-2.20;99.90;;;;;;5095451;28;20039;-62
2023/03/11 06:26:12;;;;;;;11.05;1.90;;;-2.30;99.90;;;;;;5114551;28;20388;-61
2023/03/11 06:28:37;;;;;;;4.68;1.60;;;-2.20;99.90;;;;;;5112348;28;20399;-62
2023/03/11 06:31:14;;;;;;;4.32;1.50;;;-2.20;99.90;;;;;;5114116;28;20043;-61
2023/03/11 06:33:40;;;;;;;8.90;2.17;;;-2.20;99.90;;;;;;5113686;28;20043;-61
2023/03/11 06:36:06;;;;;;;6.47;2.15;;;-2.30;99.90;;;;;;5112874;28;20088;-62
2023/03/11 06:38:33;;;;;;;4.35;1.88;;;-2.20;99.90;;;;;;5097567;28;20098;-62
2023/03/11 06:41:03;;;;;;;6.45;2.10;;;-2.20;99.90;;;;;;5090758;28;20055;-61
2023/03/11 06:43:30;;;;;;;7.68;2.58;;;-2.10;99.90;;;;;;5089442;28;20111;-61
2023/03/11 06:45:56;;;;;;;6.20;2.17;;;-2.10;99.90;;;;;;5072250;28;20045;-61
2023/03/11 06:48:22;;;;;;;6.47;2.65;;;-2.00;99.90;;;;;;5087652;28;20454;-62
2023/03/11 06:50:58;;;;;;;7.88;2.70;;;-2.00;99.90;;;;;;5093868;28;20115;-62
2023/03/11 06:53:24;;;;;;;7.00;2.83;;;-1.90;99.90;;;;;;5091745;28;20081;-62
2023/03/11 06:56:01;;;;;;;7.25;3.17;;;-1.90;99.90;;;;;;5078369;28;20036;-61
2023/03/11 06:58:28;;;;;;;5.28;3.00;;;-1.80;99.90;;;;;;5088878;28;20170;-62
2023/03/11 07:00:54;;;;;;;7.15;2.83;;;-1.70;99.90;;;;;;5091893;28;20028;-62
2023/03/11 07:03:20;;;;;;;6.55;3.65;;;-1.70;99.90;;;;;;5089805;28;20036;-62
2023/03/11 07:05:49;;;;;;;10.18;6.43;;;-1.60;99.90;;;;;;5073185;28;20045;-62
2023/03/11 07:08:15;;;;;;;6.50;3.58;;;-1.50;99.90;;;;;;5052461;28;20047;-62
2023/03/11 07:10:41;;;;;;;13.52;5.25;;;-1.50;99.90;;;;;;5069681;28;20036;-63
2023/03/11 07:13:07;;;;;;;8.98;5.03;;;-1.40;99.90;;;;;;5069084;28;20113;-63
2023/03/11 07:15:33;;;;;;;10.50;4.88;;;-1.30;99.90;;;;;;5071459;28;20083;-63
2023/03/11 07:17:58;;;;;;;8.07;4.20;;;-1.20;99.90;;;;;;5069020;28;20486;-63
2023/03/11 07:20:24;;;;;;;8.13;4.35;;;-1.10;99.90;;;;;;5079082;28;20052;-63
2023/03/11 07:22:49;;;;;;;12.35;5.68;;;-1.10;99.90;;;;;;5070580;28;20037;-62
2023/03/11 07:25:15;;;;;;;12.23;4.57;;;-1.00;99.90;;;;;;5081022;28;20044;-63
2023/03/11 07:27:41;;;;;;;7.22;2.67;;;-0.90;99.90;;;;;;5088187;28;20052;-63
2023/03/11 07:30:07;;;;;;;11.55;6.05;;;-0.80;99.90;;;;;;5085606;28;20036;-62
2023/03/11 07:32:33;;;;;;;6.97;2.97;;;-0.70;99.90;;;;;;5065587;28;20045;-63
2023/03/11 07:34:59;;;;;;;7.30;2.80;;;-0.70;99.90;;;;;;5084914;28;20039;-62
2023/03/11 07:37:24;;;;;;;7.50;3.40;;;-0.60;99.90;;;;;;5091346;28;20049;-63
2023/03/11 07:39:50;;;;;;;11.48;5.63;;;-0.50;99.90;;;;;;5107721;28;20051;-63
2023/03/11 07:42:16;;;;;;;6.43;2.95;;;-0.40;99.90;;;;;;5105532;28;20405;-63
2023/03/11 07:44:42;;;;;;;9.05;3.40;;;-0.30;99.90;;;;;;5104388;28;20153;-62
2023/03/11 07:47:07;;;;;;;6.38;2.17;;;-0.20;99.90;;;;;;5081752;28;20040;-63
2023/03/11 07:49:33;;;;;;;6.22;2.45;;;-0.20;99.90;;;;;;5085077;28;20047;-63
2023/03/11 07:51:59;;;;;;;10.02;2.45;;;-0.10;99.90;;;;;;5064701;28;20391;-62
2023/03/11 07:54:25;;;;;;;9.00;3.38;;;0.00;99.90;;;;;;5083583;28;20048;-62
2023/03/11 07:56:50;;;;;;;7.65;3.03;;;0.10;99.90;;;;;;5064728;28;20138;-63
2023/03/11 07:59:16;;;;;;;11.10;4.50;;;0.20;99.90;;;;;;5088403;28;20550;-63
2023/03/11 08:01:45;;;;;;;13.65;4.63;;;0.30;99.90;;;;;;5089419;28;20070;-63
2023/03/11 08:04:13;;;;;;;12.05;3.60;;;0.40;99.90;;;;;;5098595;28;20047;-70
2023/03/11 08:06:41;;;;;;;10.85;3.88;;;0.50;99.90;;;;;;5087612;28;20377;-69
2023/03/11 08:09:08;;;;;;;7.95;3.30;;;0.60;99.90;;;;;;5070601;28;20041;-69
2023/03/11 08:11:34;;;;;;;8.30;3.33;;;0.70;99.90;;;;;;5070883;28;20109;-69
2023/03/11 08:14:01;;;;;;;8.18;2.95;;;0.80;99.90;;;;;;5073272;28;20055;-69
2023/03/11 08:16:28;;;;;;;9.55;2.60;;;0.90;99.90;;;;;;5102733;28;20035;-68
2023/03/11 08:18:54;;;;;;;5.25;2.15;;;1.00;99.90;;;;;;5074571;28;20051;-68
2023/03/11 08:21:23;;;;;;;9.50;2.90;;;1.10;99.90;;;;;;5076868;28;20502;-65
2023/03/11 08:23:50;;;;;;;8.73;2.40;;;1.20;99.90;;;;;;5094280;28;20388;-66
2023/03/11 08:26:18;;;;;;;8.77;3.67;;;1.30;99.90;;;;;;5090391;28;20036;-67
2023/03/11 08:28:45;;;;;;;11.55;3.20;;;1.40;99.90;;;;;;5090946;28;20040;-67
2023/03/11 08:31:15;;;;;;;8.45;2.83;;;1.40;99.90;;;;;;5106637;28;20039;-67
2023/03/11 08:33:43;;;;;;;7.18;3.22;;;1.50;99.90;;;;;;5094333;28;20050;-67
2023/03/11 08:36:09;;;;;;;12.05;3.50;;;1.60;99.90;;;;;;5093660;28;20119;-67
2023/03/11 08:38:35;;;;;;;7.43;3.55;;;1.70;99.90;;;;;;5073605;28;20032;-67
2023/03/11 08:41:01;;;;;;;6.03;1.75;;;1.70;99.90;;;;;;5091484;28;20063;-67
2023/03/11 08:43:27;;;;;;;6.80;1.90;;;1.80;99.90;;;;;;5090560;28;20086;-66
2023/03/11 08:45:53;;;;;;;8.25;2.47;;;1.90;99.90;;;;;;5089671;28;20032;-67
2023/03/11 08:48:19;;;;;;;8.48;2.83;;;1.90;99.90;;;;;;5093477;28;20039;-67
2023/03/11 08:50:45;;;;;;;8.82;2.60;;;2.00;99.90;;;;;;5090572;28;20036;-67
2023/03/11 08:53:10;;;;;;;8.35;2.78;;;2.10;99.90;;;;;;5085855;28;20037;-67
2023/03/11 08:55:36;;;;;;;8.75;2.67;;;2.10;99.90;;;;;;5089768;28;20044;-66
2023/03/11 08:58:02;;;;;;;7.40;2.22;;;2.20;99.90;;;;;;5073366;28;20089;-67
2023/03/11 09:00:28;;;;;;;8.40;2.58;;;2.30;99.90;;;;;;5093995;28;20028;-66
2023/03/11 09:02:54;;;;;;;8.90;3.20;;;2.30;99.90;;;;;;5097364;28;20594;-66
2023/03/11 09:05:19;;;;;;;7.70;3.63;;;2.40;99.90;;;;;;5090440;28;20045;-66
2023/03/11 09:07:45;;;;;;;9.40;2.17;;;2.50;99.90;;;;;;5075064;28;20511;-66
2023/03/11 09:10:13;;;;;;;7.10;1.73;;;2.60;99.90;;;;;;5095141;28;20100;-66
2023/03/11 09:12:39;;;;;;;6.93;2.47;;;2.60;99.90;;;;;;5089502;28;20043;-66
2023/03/11 09:15:06;;;;;;;8.60;2.90;;;2.60;99.90;;;;;;5089725;28;20044;-66
2023/03/11 09:17:32;;;;;;;7.03;2.42;;;2.70;99.90;;;;;;5097932;28;20068;-66
2023/03/11 09:19:57;;;;;;;5.80;1.73;;;2.70;99.90;;;;;;5079838;28;20036;-67
2023/03/11 09:22:23;;;;;;;5.78;2.42;;;2.70;99.90;;;;;;5089686;28;20118;-67
2023/03/11 09:24:49;;;;;;;7.70;2.72;;;2.80;99.90;;;;;;5091010;28;20093;-66
2023/03/11 09:27:14;;;;;;;7.07;1.80;;;2.80;99.90;;;;;;5092316;28;20032;-66
2023/03/11 09:29:40;;;;;;;5.22;1.85;;;2.90;99.90;;;;;;5097803;28;20043;-65
2023/03/11 09:32:07;;;;;;;10.88;4.00;;;2.90;99.90;;;;;;5089959;28;20043;-65
2023/03/11 09:34:32;;;;;;;8.90;1.83;;;2.90;99.90;;;;;;5089806;28;20066;-65
2023/03/11 09:36:59;;;;;;;7.80;1.83;;;2.90;99.90;;;;;;5090612;28;20484;-65
2023/03/11 09:39:25;;;;;;;7.28;2.33;;;2.90;99.90;;;;;;5086916;28;20044;-65
2023/03/11 09:41:57;;;;;;;8.82;2.17;;;3.00;99.90;;;;;;5091504;28;20044;-66
2023/03/11 09:44:44;;;;;;;7.40;2.00;;;3.00;99.90;;;;;;5109150;28;20035;-66
2023/03/11 09:47:29;;;;;;;9.55;1.83;;;3.10;99.90;;;;;;5092958;28;20039;-66
2023/03/11 09:50:02;;;;;;;5.25;2.20;;;3.10;99.90;;;;;;5111609;28;20043;-65
2023/03/11 09:52:51;;;;;;;10.40;2.83;;;3.20;99.90;;;;;;5114153;28;20079;-65
2023/03/11 09:55:47;;;;;;;8.88;2.88;;;3.30;99.90;;;;;;5111124;28;20083;-65
2023/03/11 09:58:13;;;;;;;;;;;3.30;99.90;;;;;;5115090;28;20119;-65
2023/03/11 10:00:40;;;;;;;6.22;1.73;;;3.40;99.90;;;;;;5109201;28;20003;-65
2023/03/11 10:03:15;;;;;;;5.55;2.15;;;3.50;99.90;;;;;;5092420;28;20492;-65
2023/03/11 10:05:42;;;;;;;5.93;1.90;;;3.60;99.90;;;;;;5094026;28;20071;-65
2023/03/11 10:08:24;;;;;;;4.03;1.65;;;3.60;99.90;;;;;;5093202;28;20055;-65
2023/03/11 10:11:14;;;;;;;6.72;2.15;;;3.70;99.90;;;;;;5093437;28;20055;-65
2023/03/11 10:14:14;;;;;;;5.80;2.05;;;3.80;99.90;;;;;;5093603;28;20098;-65
2023/03/11 10:17:01;;;;;;;6.20;1.52;;;3.90;99.90;;;;;;5090338;28;20040;-65
2023/03/11 10:19:48;;;;;;;14.43;2.58;;;4.00;99.90;;;;;;5087539;28;20045;-65
2023/03/11 10:22:29;;;;;;;5.97;2.25;;;4.00;99.90;;;;;;5090104;28;20377;-66
2023/03/11 10:25:04;;;;;;;4.55;1.70;;;4.10;99.90;;;;;;5090054;28;20066;-65
2023/03/11 10:27:39;;;;;;;;;;;4.10;99.90;;;;;;5090799;28;20035;-66
2023/03/11 10:30:24;;;;;;;5.50;1.77;;;4.30;99.90;;;;;;5084507;28;19951;-65
2023/03/11 10:32:58;;;;;;;3.58;1.40;;;4.40;99.90;;;;;;5111804;28;20035;-66
2023/03/11 10:35:37;;;;;;;6.00;1.50;;;4.50;99.90;;;;;;5095885;28;20042;-66
2023/03/11 10:38:32;;;;;;;6.13;1.58;;;4.60;99.90;;;;;;5109135;28;21003;-67
2023/03/11 10:41:03;;;;;;;9.25;1.60;;;4.60;99.90;;;;;;5114534;28;20138;-68
2023/03/11 10:43:43;;;;;;;6.55;2.13;;;4.70;99.90;;;;;;5107185;28;20039;-67
2023/03/11 10:46:19;;;;;;;7.32;1.88;;;4.80;99.90;;;;;;5075091;28;20474;-67
2023/03/11 10:48:45;;;;;;;7.82;2.58;;;4.80;99.90;;;;;;5076417;28;20044;-68
2023/03/11 10:51:26;;;;;;;8.10;1.90;;;4.80;99.90;;;;;;5088217;28;20120;-67
2023/03/11 10:53:54;;;;;;;5.63;1.50;;;4.80;99.90;;;;;;5056155;28;20425;-68
2023/03/11 10:56:28;;;;;;;6.68;1.90;;;4.80;99.90;;;;;;5096494;28;20036;-68
2023/03/11 10:58:55;;;;;;;4.38;1.67;;;4.80;99.90;;;;;;5075105;28;20492;-68
2023/03/11 11:01:21;;;;;;;7.72;2.28;;;4.80;99.90;;;;;;5087329;28;20036;-68
2023/03/11 11:03:54;;;;;;;4.40;1.35;;;4.80;99.90;;;;;;5085626;28;20481;-68
2023/03/11 11:06:31;;;;;;;8.38;1.48;;;4.80;99.90;;;;;;5088838;28;20036;-68
2023/03/11 11:09:18;;;;;;;5.55;1.65;;;4.80;99.90;;;;;;5093499;28;20046;-68
2023/03/11 11:12:19;;;;;;;6.30;1.90;;;4.80;99.90;;;;;;5109879;28;20502;-68
2023/03/11 11:14:47;;;;;;;7.05;1.45;;;4.90;99.90;;;;;;5062303;28;20061;-69
2023/03/11 11:17:26;;;;;;;6.25;1.33;;;5.00;99.90;;;;;;5053788;28;20488;-68
2023/03/11 11:19:55;;;;;;;6.68;1.30;;;5.00;99.90;;;;;;5089807;28;20495;-69
2023/03/11 11:22:23;;;;;;;6.40;1.80;;;5.10;99.90;;;;;;5074267;28;20036;-69
2023/03/11 11:24:51;;;;;;;5.68;1.25;;;5.20;99.90;;;;;;5103374;28;20040;-69
2023/03/11 11:27:27;;;;;;;6.45;1.30;;;5.30;99.90;;;;;;5079719;28;20497;-69
2023/03/11 11:30:22;;;;;;;6.90;2.90;;;5.40;99.90;;;;;;5090868;28;20126;-69
2023/03/11 11:32:52;;;;;;;4.57;1.48;;;5.40;99.90;;;;;;5063242;28;20413;-69
2023/03/11 11:35:19;;;;;;;4.75;1.23;;;5.40;99.90;;;;;;5094579;28;20111;-69
2023/03/11 11:38:00;;;;;;;10.43;2.30;;;5.30;99.90;;;;;;5090499;28;20044;-70
2023/03/11 11:40:29;;;;;;;4.75;1.73;;;5.30;99.90;;;;;;5088612;28;20066;-69
2023/03/11 11:43:11;;;;;;;7.18;1.33;;;5.20;99.90;;;;;;5089627;28;20435;-69
2023/03/11 11:45:54;;;;;;;5.22;1.10;;;5.20;99.90;;;;;;5094368;28;20078;-69
2023/03/11 11:48:32;;;;;;;4.03;1.30;;;5.20;99.90;;;;;;5103928;28;20074;-69
2023/03/11 11:51:01;;;;;;;4.82;1.42;;;5.20;99.90;;;;;;5093297;28;20066;-69
2023/03/11 11:53:40;;;;;;;3.80;1.30;;;5.30;99.90;;;;;;5100070;28;20101;-70
2023/03/11 11:56:06;;;;;;;5.03;1.50;;;5.40;99.90;;;;;;5097198;28;20040;-69
2023/03/11 11:58:33;;;;;;;3.78;1.10;;;5.40;99.90;;;;;;5090483;28;20071;-70
2023/03/11 12:01:28;;;;;;;3.83;1.13;;;5.50;99.90;;;;;;5089798;28;20042;-70
2023/03/11 12:04:18;;;;;;;3.87;1.20;;;5.60;99.90;;;;;;5089398;28;20040;-70
2023/03/11 12:06:53;;;;;;;6.28;1.10;;;5.70;99.90;;;;;;5052968;28;20041;-70
2023/03/11 12:09:30;;;;;;;3.88;1.10;;;5.70;99.90;;;;;;5096304;28;20047;-70
2023/03/11 12:12:11;;;;;;;3.83;1.20;;;5.70;99.90;;;;;;5090640;28;20031;-70
2023/03/11 12:14:51;;;;;;;3.35;0.90;;;5.80;99.90;;;;;;5109288;28;20572;-70
2023/03/11 12:17:19;;;;;;;4.40;1.10;;;5.80;99.90;;;;;;5091048;28;20049;-71
2023/03/11 12:19:47;;;;;;;5.55;1.20;;;5.80;99.90;;;;;;5109735;28;20054;-70
2023/03/11 12:22:19;;;;;;;4.65;1.40;;;5.70;99.90;;;;;;5100647;28;20043;-70
2023/03/11 12:25:20;;;;;;;4.07;1.10;;;5.60;99.90;;;;;;5091494;28;20377;-70
2023/03/11 12:28:12;;;;;;;8.15;1.30;;;5.70;99.90;;;;;;5094213;28;20484;-69
2023/03/11 12:30:45;;;;;;;10.35;2.22;;;5.60;99.90;;;;;;5077193;28;20052;-69
2023/03/11 12:33:17;;;;;;;5.00;1.20;;;5.60;99.90;;;;;;5105001;28;20024;-68
2023/03/11 12:35:51;;;;;;;7.00;2.50;;;5.60;99.90;;;;;;5072471;28;20037;-69
2023/03/11 12:38:26;;;;;;;4.22;1.15;;;5.70;99.90;;;;;;5052899;28;20143;-68
2023/03/11 12:41:05;;;;;;;6.43;1.70;;;5.60;99.90;;;;;;5071037;28;20044;-69
2023/03/11 12:43:33;;;;;;;4.38;1.98;;;5.60;99.90;;;;;;5086793;28;20048;-68
2023/03/11 12:46:05;;;;;;;6.15;1.85;;;5.50;99.90;;;;;;5091108;28;20507;-68
2023/03/11 12:48:44;;;;;;;7.60;2.03;;;5.40;99.90;;;;;;5091154;28;20040;-68
2023/03/11 12:51:25;;;;;;;7.35;1.80;;;5.20;99.90;;;;;;5089941;28;20495;-68
2023/03/11 12:53:52;;;;;;;8.00;3.75;;;5.10;99.90;;;;;;5090928;28;20484;-68
2023/03/11 12:56:26;;;;;;;12.82;6.75;;;5.10;99.90;;;;;;5091543;28;20086;-68
2023/03/11 12:59:13;;;;;;;8.55;3.25;;;5.20;99.90;;;;;;5086760;28;20076;-68
2023/03/11 13:01:50;;;;;;;5.60;1.70;;;5.30;99.90;;;;;;5087916;28;20057;-67
2023/03/11 13:04:44;;;;;;;6.85;1.23;;;5.40;99.90;;;;;;5087171;28;20150;-67